Time;durP1;ratioP1;P1;durP2;ratioP2;P2;SDS_P1;SDS_P2;PMS_P1;PMS_P2;Temp;Humidity;BMP_temperature;BMP_pressure;BME280_temperature;BME280_humidity;BME280_pressure;Samples;Min_cycle;Max_cycle;Signal;HPM_P1;HPM_P2
2024/01/30 00:01:43;;;;;;;43.90;18.30;;;;;;;2.99;78.91;102268.47;110527;1213;137987;-68
2024/01/30 00:04:08;;;;;;;50.60;19.70;;;;;;;3.01;78.74;102272.20;110654;1209;94972;-68
2024/01/30 00:06:35;;;;;;;44.40;19.00;;;;;;;3.00;78.76;102277.84;110423;1212;138451;-67
2024/01/30 00:09:00;;;;;;;44.20;17.50;;;;;;;3.00;78.74;102279.61;110430;1212;96304;-67
2024/01/30 00:11:25;;;;;;;54.60;19.90;;;;;;;3.01;79.08;102275.90;110523;1210;96278;-68
2024/01/30 00:13:56;;;;;;;54.10;20.70;;;;;;;3.00;78.95;102275.55;110490;1210;138174;-67
2024/01/30 00:16:23;;;;;;;47.50;18.90;;;;;;;3.00;78.87;102279.25;110625;1225;96355;-67
2024/01/30 00:18:50;;;;;;;57.90;21.90;;;;;;;2.97;78.82;102274.79;110419;1213;138401;-68
2024/01/30 00:21:15;;;;;;;57.60;19.00;;;;;;;2.97;78.79;102272.33;110539;1209;97868;-67
2024/01/30 00:23:41;;;;;;;39.30;17.80;;;;;;;2.98;78.86;102273.02;110594;1209;96727;-68
2024/01/30 00:26:06;;;;;;;46.00;19.60;;;;;;;2.95;78.80;102269.29;110388;1214;139435;-68
2024/01/30 00:28:31;;;;;;;49.20;18.60;;;;;;;2.94;78.77;102271.05;110527;1209;96020;-67
2024/01/30 00:30:57;;;;;;;52.90;19.90;;;;;;;2.94;78.91;102267.68;110633;1213;138612;-69
2024/01/30 00:33:22;;;;;;;51.00;20.20;;;;;;;2.94;78.98;102266.10;111203;1209;96344;-69
2024/01/30 00:35:47;;;;;;;45.90;18.50;;;;;;;2.95;78.85;102268.77;110979;1213;96368;-67
2024/01/30 00:38:12;;;;;;;54.20;19.80;;;;;;;2.92;78.89;102267.84;110521;1213;138528;-67
2024/01/30 00:40:37;;;;;;;47.20;19.00;;;;;;;2.92;78.86;102267.48;110698;1213;96323;-67
2024/01/30 00:43:04;;;;;;;54.00;20.20;;;;;;;2.88;78.64;102266.19;110348;1224;138742;-67
2024/01/30 00:45:29;;;;;;;56.50;19.00;;;;;;;2.88;78.91;102270.60;110667;1210;96594;-67
2024/01/30 00:47:55;;;;;;;45.00;17.70;;;;;;;2.89;78.77;102271.33;110664;1213;96811;-67
2024/01/30 00:50:20;;;;;;;47.20;18.40;;;;;;;2.88;78.74;102267.61;110526;1222;138315;-67
2024/01/30 00:52:45;;;;;;;45.50;18.70;;;;;;;2.85;78.66;102268.98;110574;1210;96426;-67
2024/01/30 00:55:11;;;;;;;47.10;18.80;;;;;;;2.83;78.66;102269.84;110877;1209;138140;-67
2024/01/30 00:57:36;;;;;;;44.10;19.30;;;;;;;2.79;78.55;102264.84;110796;1212;96368;-70
2024/01/30 01:00:02;;;;;;;47.70;19.00;;;;;;;2.77;78.87;102260.91;110662;1209;97685;-69
2024/01/30 01:02:28;;;;;;;52.20;20.40;;;;;;;2.81;78.90;102267.50;110744;1212;138069;-67
2024/01/30 01:04:53;;;;;;;47.70;20.10;;;;;;;2.79;78.55;102265.52;110620;1212;96251;-67
2024/01/30 01:07:19;;;;;;;50.40;19.20;;;;;;;2.77;78.66;102261.44;110628;1209;138605;-67
2024/01/30 01:09:44;;;;;;;54.60;20.00;;;;;;;2.76;78.66;102261.60;110636;1212;96335;-67
2024/01/30 01:12:09;;;;;;;49.90;19.10;;;;;;;2.71;78.59;102260.30;110634;1213;140149;-67
2024/01/30 01:14:36;;;;;;;67.30;20.70;;;;;;;2.71;78.77;102258.53;110914;1212;96501;-67
2024/01/30 01:17:01;;;;;;;50.30;19.00;;;;;;;2.71;78.69;102259.95;110736;1212;96811;-67
2024/01/30 01:19:26;;;;;;;48.80;18.60;;;;;;;2.70;78.71;102256.40;110846;1208;139184;-67
2024/01/30 01:21:52;;;;;;;51.40;19.60;;;;;;;2.69;78.77;102254.63;110785;1208;96319;-67
2024/01/30 01:24:17;;;;;;;51.30;20.50;;;;;;;2.68;78.65;102251.08;110765;1207;141842;-68
2024/01/30 01:26:42;;;;;;;53.90;20.80;;;;;;;2.68;78.84;102253.36;110860;1208;96612;-67
2024/01/30 01:29:11;;;;;;;50.90;20.10;;;;;;;2.66;78.76;102255.98;110843;1208;96322;-67
2024/01/30 01:31:43;;;;;;;48.80;20.30;;;;;;;2.65;78.78;102254.91;110809;1209;139300;-67
2024/01/30 01:34:12;;;;;;;49.40;20.40;;;;;;;2.65;78.77;102250.67;110846;1218;100196;-67
2024/01/30 01:36:38;;;;;;;49.70;20.80;;;;;;;2.62;78.44;102254.34;110766;1207;140470;-67
2024/01/30 01:39:03;;;;;;;48.50;19.30;;;;;;;2.57;78.80;102250.77;110804;1216;96285;-67
2024/01/30 01:41:33;;;;;;;54.60;22.20;;;;;;;2.56;78.72;102247.59;110878;1211;95230;-67
2024/01/30 01:43:59;;;;;;;55.40;21.40;;;;;;;2.57;78.78;102245.83;110689;1208;138069;-67
2024/01/30 01:46:27;;;;;;;53.80;21.20;;;;;;;2.57;78.94;102246.70;110854;1213;96258;-70
2024/01/30 01:48:53;;;;;;;51.50;20.40;;;;;;;2.56;78.74;102252.88;111201;1207;138701;-67
2024/01/30 01:51:19;;;;;;;51.20;19.50;;;;;;;2.54;78.70;102256.02;110887;1212;95969;-67
2024/01/30 01:53:45;;;;;;;48.90;19.80;;;;;;;2.54;78.81;102253.20;110924;1207;99229;-67
2024/01/30 01:56:10;;;;;;;47.40;19.60;;;;;;;2.52;78.58;102252.28;110858;1209;138619;-67
2024/01/30 01:58:37;;;;;;;44.60;19.10;;;;;;;2.52;78.58;102255.64;110973;1211;96358;-67
2024/01/30 02:01:03;;;;;;;55.40;19.20;;;;;;;2.50;78.55;102255.79;110712;1208;139872;-66
2024/01/30 02:03:30;;;;;;;47.00;19.40;;;;;;;2.50;78.77;102252.06;110916;1210;99528;-66
2024/01/30 02:05:56;;;;;;;48.40;21.00;;;;;;;2.47;78.55;102250.95;110910;1210;97364;-66
2024/01/30 02:08:22;;;;;;;45.80;19.90;;;;;;;2.46;78.70;102247.23;110673;1223;138438;-66
2024/01/30 02:10:48;;;;;;;47.80;20.10;;;;;;;2.42;78.56;102245.77;110843;1207;96322;-67
2024/01/30 02:13:13;;;;;;;52.30;21.20;;;;;;;2.38;78.74;102243.77;110711;1208;138548;-68
2024/01/30 02:15:38;;;;;;;51.70;19.70;;;;;;;2.37;78.62;102241.98;110868;1208;97633;-66
2024/01/30 02:18:04;;;;;;;51.50;20.50;;;;;;;2.37;78.63;102245.16;110893;1207;95940;-66
2024/01/30 02:20:31;;;;;;;47.80;20.50;;;;;;;2.37;78.78;102246.05;110767;1208;138278;-66
2024/01/30 02:23:01;;;;;;;46.50;18.30;;;;;;;2.37;78.67;102245.88;110945;1212;96334;-69
2024/01/30 02:25:46;;;;;;;46.50;17.70;;;;;;;2.39;78.79;102246.43;111311;1207;138649;-66
2024/01/30 02:28:12;;;;;;;47.10;18.60;;;;;;;2.39;78.76;102243.08;110831;1208;96243;-66
2024/01/30 02:30:38;;;;;;;47.00;19.00;;;;;;;2.39;78.63;102242.71;110815;1211;139843;-66
2024/01/30 02:33:04;;;;;;;43.10;16.60;;;;;;;2.37;78.61;102245.52;110844;1210;96339;-66
2024/01/30 02:35:29;;;;;;;47.50;18.30;;;;;;;2.35;78.79;102246.71;110923;1216;96299;-66
2024/01/30 02:37:54;;;;;;;49.40;17.80;;;;;;;2.34;78.72;102243.88;110701;1207;138754;-66
2024/01/30 02:40:19;;;;;;;42.30;18.80;;;;;;;2.35;78.76;102241.43;110914;1208;97230;-67
2024/01/30 02:42:45;;;;;;;47.70;17.90;;;;;;;2.35;78.62;102245.48;111276;1207;139380;-67
2024/01/30 02:45:11;;;;;;;41.30;18.00;;;;;;;2.33;78.50;102242.10;111438;1211;96256;-67
2024/01/30 02:47:37;;;;;;;46.50;17.50;;;;;;;2.34;78.76;102239.30;111553;1213;96234;-67
2024/01/30 02:50:03;;;;;;;48.80;18.90;;;;;;;2.33;78.69;102239.10;111247;1213;138685;-67
2024/01/30 02:52:28;;;;;;;41.40;16.90;;;;;;;2.31;78.69;102236.77;111354;1208;96350;-67
2024/01/30 02:54:54;;;;;;;41.70;16.80;;;;;;;2.30;78.72;102236.41;111254;1207;139563;-67
2024/01/30 02:57:19;;;;;;;42.90;15.40;;;;;;;2.28;78.64;102235.86;111411;1210;96241;-67
2024/01/30 02:59:44;;;;;;;41.50;16.80;;;;;;;2.27;78.68;102231.06;111449;1207;96278;-67
2024/01/30 03:02:09;;;;;;;43.10;16.70;;;;;;;2.25;78.58;102233.34;111290;1208;139518;-67
2024/01/30 03:04:35;;;;;;;40.20;15.70;;;;;;;2.23;78.72;102236.65;111475;1207;96208;-66
2024/01/30 03:07:00;;;;;;;47.60;17.10;;;;;;;2.20;78.60;102237.14;111214;1211;138180;-67
2024/01/30 03:09:25;;;;;;;46.70;16.30;;;;;;;2.20;78.54;102235.02;111379;1208;96169;-67
2024/01/30 03:11:50;;;;;;;47.20;17.90;;;;;;;2.18;78.58;102229.70;111340;1207;96296;-67
2024/01/30 03:14:16;;;;;;;42.70;16.70;;;;;;;2.19;78.72;102228.13;111301;1210;138588;-67
2024/01/30 03:16:42;;;;;;;39.00;16.20;;;;;;;2.17;78.67;102225.98;110896;1208;96263;-67
2024/01/30 03:19:09;;;;;;;40.70;16.10;;;;;;;2.15;78.75;102222.77;110740;1213;139147;-67
2024/01/30 03:21:35;;;;;;;41.20;16.50;;;;;;;2.13;78.64;102224.48;110917;1207;99133;-67
2024/01/30 03:24:00;;;;;;;47.00;17.00;;;;;;;2.11;78.71;102223.39;110814;1207;96417;-67
2024/01/30 03:26:25;;;;;;;40.70;17.10;;;;;;;2.10;78.62;102222.50;110876;1220;140446;-66
2024/01/30 03:28:51;;;;;;;45.30;17.20;;;;;;;2.10;78.60;102225.68;110828;1211;96739;-67
2024/01/30 03:31:17;;;;;;;39.10;17.30;;;;;;;2.10;78.79;102226.20;110815;1207;138041;-67
2024/01/30 03:33:44;;;;;;;45.60;16.40;;;;;;;2.11;78.70;102223.93;110754;1208;110209;-67
2024/01/30 03:36:11;;;;;;;35.00;15.30;;;;;;;2.11;78.79;102220.59;110759;1207;138888;-67
2024/01/30 03:38:36;;;;;;;43.50;16.50;;;;;;;2.11;78.85;102217.40;110792;1207;96636;-67
2024/01/30 03:41:02;;;;;;;37.30;14.80;;;;;;;2.11;78.67;102218.11;110889;1211;96324;-67
2024/01/30 03:43:27;;;;;;;44.50;16.10;;;;;;;2.11;78.89;102215.64;110789;1211;137748;-67
2024/01/30 03:45:52;;;;;;;42.10;16.50;;;;;;;2.10;78.82;102216.87;110821;1208;96261;-67
2024/01/30 03:48:19;;;;;;;43.40;16.10;;;;;;;2.11;78.99;102216.00;110791;1220;138526;-66
2024/01/30 03:50:44;;;;;;;36.00;16.00;;;;;;;2.12;78.90;102214.61;110796;1219;96359;-66
2024/01/30 03:53:09;;;;;;;40.10;15.20;;;;;;;2.11;78.70;102217.23;110906;1212;96238;-66
2024/01/30 03:55:34;;;;;;;37.50;15.00;;;;;;;2.09;78.62;102221.61;110775;1208;138752;-67
2024/01/30 03:58:00;;;;;;;38.00;15.00;;;;;;;2.07;78.84;102220.69;110812;1213;96528;-67
2024/01/30 04:00:25;;;;;;;34.80;14.70;;;;;;;2.10;78.89;102227.62;110786;1212;139642;-66
2024/01/30 04:02:51;;;;;;;42.80;15.90;;;;;;;2.09;78.63;102227.95;110828;1208;95241;-66
2024/01/30 04:05:16;;;;;;;42.80;15.40;;;;;;;2.09;78.70;102228.66;110900;1210;97080;-66
2024/01/30 04:07:42;;;;;;;38.40;15.10;;;;;;;2.09;78.82;102225.14;110753;1212;138510;-66
2024/01/30 04:10:09;;;;;;;38.20;15.10;;;;;;;2.12;78.85;102231.17;110801;1213;96263;-66
2024/01/30 04:12:35;;;;;;;34.80;14.10;;;;;;;2.12;78.74;102229.23;110750;1207;138784;-66
2024/01/30 04:15:01;;;;;;;38.00;14.50;;;;;;;2.08;78.73;102227.94;110954;1211;96302;-67
2024/01/30 04:17:28;;;;;;;48.40;16.20;;;;;;;2.08;78.80;102231.11;110840;1212;96346;-66
2024/01/30 04:19:53;;;;;;;37.30;15.00;;;;;;;2.10;78.97;102233.44;110652;1208;138953;-66
2024/01/30 04:22:18;;;;;;;33.00;13.30;;;;;;;2.10;78.92;102234.14;110833;1213;96234;-66
2024/01/30 04:24:43;;;;;;;36.40;15.10;;;;;;;2.12;78.78;102231.89;110757;1212;138502;-66
2024/01/30 04:27:09;;;;;;;35.90;14.60;;;;;;;2.16;78.79;102233.01;110874;1213;96483;-66
2024/01/30 04:29:34;;;;;;;39.90;15.30;;;;;;;2.16;78.87;102230.55;110936;1214;96236;-66
2024/01/30 04:31:59;;;;;;;35.50;14.50;;;;;;;2.15;78.88;102236.70;110697;1208;139400;-66
2024/01/30 04:34:24;;;;;;;31.40;14.20;;;;;;;2.14;78.74;102233.33;110930;1211;96338;-66
2024/01/30 04:36:50;;;;;;;36.40;14.10;;;;;;;2.14;78.73;102236.31;110663;1223;138932;-66
2024/01/30 04:39:15;;;;;;;40.80;15.90;;;;;;;2.14;78.80;102240.20;110884;1207;96254;-67
2024/01/30 04:41:40;;;;;;;36.90;14.50;;;;;;;2.12;78.82;102234.35;110885;1207;96241;-67
2024/01/30 04:44:06;;;;;;;40.20;15.80;;;;;;;2.14;78.66;102237.73;110635;1213;138721;-66
2024/01/30 04:46:33;;;;;;;40.10;15.70;;;;;;;2.14;78.94;102234.39;110914;1213;96449;-67
2024/01/30 04:48:59;;;;;;;36.40;14.70;;;;;;;2.13;78.84;102234.73;110743;1206;138271;-66
2024/01/30 04:51:24;;;;;;;38.90;14.90;;;;;;;2.13;78.65;102232.96;110855;1211;96475;-66
2024/01/30 04:53:49;;;;;;;34.60;14.70;;;;;;;2.13;78.72;102232.25;110852;1210;96434;-66
2024/01/30 04:56:14;;;;;;;37.50;15.40;;;;;;;2.11;78.71;102229.41;111180;1208;139851;-67
2024/01/30 04:58:40;;;;;;;39.80;14.70;;;;;;;2.10;78.62;102231.16;111423;1212;96299;-67
2024/01/30 05:01:05;;;;;;;43.90;14.30;;;;;;;2.06;78.46;102227.38;110970;1211;139357;-66
2024/01/30 05:03:34;;;;;;;38.60;15.40;;;;;;;2.05;78.77;102228.96;111001;1207;96779;-66
2024/01/30 05:05:59;;;;;;;36.30;14.10;;;;;;;2.08;78.70;102230.40;110916;1208;108307;-67
2024/01/30 05:08:24;;;;;;;39.10;14.40;;;;;;;2.08;78.69;102233.22;110779;1210;138569;-67
2024/01/30 05:10:50;;;;;;;32.10;14.30;;;;;;;2.07;78.71;102234.45;110824;1211;96354;-67
2024/01/30 05:13:15;;;;;;;44.70;14.20;;;;;;;2.06;78.77;102227.02;110791;1211;138211;-67
2024/01/30 05:15:40;;;;;;;41.60;13.40;;;;;;;2.05;78.53;102231.24;110953;1208;96276;-67
2024/01/30 05:18:05;;;;;;;31.30;13.50;;;;;;;2.00;78.43;102233.09;110839;1214;96359;-67
2024/01/30 05:20:31;;;;;;;36.20;14.60;;;;;;;2.00;78.68;102232.91;110837;1210;138218;-67
2024/01/30 05:22:56;;;;;;;33.30;14.00;;;;;;;2.02;78.70;102235.24;110912;1210;96424;-67
2024/01/30 05:25:21;;;;;;;42.00;16.10;;;;;;;2.01;78.65;102237.16;110819;1209;138940;-67
2024/01/30 05:27:47;;;;;;;32.50;13.50;;;;;;;1.99;78.51;102239.94;110953;1208;96321;-67
2024/01/30 05:30:13;;;;;;;38.80;15.50;;;;;;;1.97;78.70;102235.86;110927;1208;96200;-67
2024/01/30 05:32:39;;;;;;;44.00;15.20;;;;;;;1.96;78.49;102239.38;110903;1208;96453;-67
2024/01/30 05:35:05;;;;;;;42.40;17.10;;;;;;;1.96;78.61;102240.42;110938;1213;96472;-67
2024/01/30 05:37:30;;;;;;;43.50;16.30;;;;;;;1.92;78.37;102236.12;110776;1207;138572;-65
2024/01/30 05:39:55;;;;;;;46.90;17.30;;;;;;;1.91;78.43;102236.27;110760;1221;96337;-66
2024/01/30 05:42:20;;;;;;;39.60;16.20;;;;;;;1.91;78.59;102234.88;110785;1224;138746;-66
2024/01/30 05:44:46;;;;;;;43.00;15.50;;;;;;;1.93;78.60;102237.38;110912;1211;98212;-66
2024/01/30 05:47:11;;;;;;;39.70;14.70;;;;;;;1.91;78.49;102238.04;111296;1211;96262;-68
2024/01/30 05:49:36;;;;;;;41.60;14.10;;;;;;;1.89;78.57;102235.72;111281;1210;138396;-69
2024/01/30 05:52:03;;;;;;;35.20;14.80;;;;;;;1.91;78.68;102238.05;111365;1206;97457;-68
2024/01/30 05:54:29;;;;;;;37.60;13.90;;;;;;;1.92;78.71;102235.77;111376;1210;140374;-68
2024/01/30 05:56:54;;;;;;;36.90;13.60;;;;;;;1.92;78.49;102237.54;111400;1211;96374;-69
2024/01/30 05:59:19;;;;;;;35.30;13.20;;;;;;;1.94;78.57;102232.45;111397;1211;96337;-68
2024/01/30 06:01:48;;;;;;;36.90;14.30;;;;;;;1.93;78.71;102233.69;111274;1219;138564;-69
2024/01/30 06:04:14;;;;;;;46.30;13.50;;;;;;;1.93;78.61;102234.20;111443;1210;109675;-68
2024/01/30 06:06:41;;;;;;;42.70;15.00;;;;;;;1.95;78.67;102234.58;111284;1208;139041;-69
2024/01/30 06:09:08;;;;;;;45.60;14.30;;;;;;;1.93;78.37;102238.44;111324;1212;96246;-68
2024/01/30 06:11:34;;;;;;;41.50;13.90;;;;;;;1.90;78.51;102237.15;111362;1207;96265;-69
2024/01/30 06:13:59;;;;;;;37.50;14.30;;;;;;;1.90;78.37;102236.62;111310;1209;138385;-68
2024/01/30 06:16:29;;;;;;;41.30;14.30;;;;;;;1.92;78.66;102242.29;111378;1210;96247;-68
2024/01/30 06:18:55;;;;;;;39.40;14.60;;;;;;;1.93;78.52;102240.02;111251;1209;138107;-68
2024/01/30 06:21:20;;;;;;;40.90;15.20;;;;;;;1.91;78.49;102238.75;111441;1211;96354;-68
2024/01/30 06:23:45;;;;;;;37.20;14.90;;;;;;;1.90;78.71;102238.73;111463;1211;96352;-68
2024/01/30 06:26:11;;;;;;;38.20;15.40;;;;;;;1.91;78.51;102234.52;111286;1214;138045;-67
2024/01/30 06:28:36;;;;;;;38.10;14.00;;;;;;;1.91;78.42;102231.35;111334;1209;96294;-68
2024/01/30 06:31:01;;;;;;;39.10;14.80;;;;;;;1.91;78.53;102230.64;111271;1209;138297;-68
2024/01/30 06:33:26;;;;;;;46.40;15.90;;;;;;;1.91;78.62;102232.94;111381;1211;96350;-68
2024/01/30 06:35:52;;;;;;;40.80;15.90;;;;;;;1.94;78.61;102236.17;111430;1209;96234;-68
2024/01/30 06:38:17;;;;;;;39.60;14.40;;;;;;;1.94;78.63;102235.80;111190;1209;138023;-68
2024/01/30 06:40:42;;;;;;;45.90;13.80;;;;;;;1.93;78.45;102236.85;111397;1212;96329;-68
2024/01/30 06:43:08;;;;;;;32.70;13.40;;;;;;;1.93;78.62;102236.15;111298;1211;138132;-68
2024/01/30 06:45:34;;;;;;;33.90;14.00;;;;;;;1.94;78.62;102236.33;111407;1210;96616;-68
2024/01/30 06:48:00;;;;;;;37.80;14.50;;;;;;;1.92;78.60;102232.96;111439;1210;96509;-69
2024/01/30 06:50:25;;;;;;;40.40;15.70;;;;;;;1.92;78.62;102231.73;111335;1212;138792;-68
2024/01/30 06:52:51;;;;;;;36.70;15.10;;;;;;;1.91;78.48;102234.52;111316;1209;97499;-69
2024/01/30 06:55:18;;;;;;;35.20;14.40;;;;;;;1.90;78.68;102232.73;111301;1212;138669;-68
2024/01/30 06:57:43;;;;;;;35.70;14.80;;;;;;;1.91;78.47;102233.80;111374;1211;96208;-68
2024/01/30 07:00:08;;;;;;;38.40;14.50;;;;;;;1.90;78.51;102232.92;111463;1212;96237;-68
2024/01/30 07:02:34;;;;;;;36.20;15.30;;;;;;;1.91;78.72;102234.17;111433;1209;137931;-68
2024/01/30 07:04:59;;;;;;;35.70;13.90;;;;;;;1.92;78.68;102237.01;111410;1212;96427;-69
2024/01/30 07:07:24;;;;;;;48.60;15.70;;;;;;;1.92;78.72;102234.90;111407;1212;138436;-69
2024/01/30 07:09:52;;;;;;;40.50;17.30;;;;;;;1.93;78.64;102232.09;111448;1216;96220;-68
2024/01/30 07:12:18;;;;;;;36.40;15.40;;;;;;;1.94;78.63;102232.46;111450;1211;109165;-69
2024/01/30 07:14:43;;;;;;;38.50;16.50;;;;;;;1.93;78.61;102232.27;111526;1209;96224;-68
2024/01/30 07:17:09;;;;;;;37.60;16.60;;;;;;;1.94;78.51;102238.27;111557;1211;96246;-69
2024/01/30 07:19:34;;;;;;;31.60;15.40;;;;;;;1.91;78.51;102238.94;111405;1211;138455;-65
2024/01/30 07:22:00;;;;;;;43.10;15.60;;;;;;;1.94;78.66;102239.15;110808;1211;96340;-67
2024/01/30 07:24:25;;;;;;;42.70;15.70;;;;;;;1.97;78.80;102246.61;111228;1211;138086;-67
2024/01/30 07:26:51;;;;;;;35.00;14.90;;;;;;;2.00;78.75;102246.84;111474;1210;96627;-67
2024/01/30 07:29:16;;;;;;;34.30;15.60;;;;;;;2.05;78.73;102246.39;111557;1210;96692;-68
2024/01/30 07:31:41;;;;;;;45.30;17.50;;;;;;;2.06;78.76;102246.77;111303;1211;138113;-68
2024/01/30 07:34:07;;;;;;;43.50;15.70;;;;;;;2.06;78.73;102249.42;111414;1206;96351;-68
2024/01/30 07:36:32;;;;;;;36.80;15.20;;;;;;;2.07;78.71;102246.96;111321;1207;138143;-67
2024/01/30 07:38:58;;;;;;;35.10;14.50;;;;;;;2.12;78.85;102250.23;111400;1212;96367;-68
2024/01/30 07:41:25;;;;;;;32.40;15.80;;;;;;;2.12;78.56;102248.46;111557;1212;97126;-67
2024/01/30 07:43:50;;;;;;;35.20;15.70;;;;;;;2.15;78.66;102254.16;110954;1211;138258;-68
2024/01/30 07:46:16;;;;;;;35.20;15.30;;;;;;;2.19;78.73;102251.40;110949;1212;96352;-68
2024/01/30 07:48:41;;;;;;;38.50;15.50;;;;;;;2.22;78.79;102249.50;111388;1212;140224;-67
2024/01/30 07:51:06;;;;;;;33.00;14.10;;;;;;;2.23;78.59;102244.95;111534;1208;95894;-68
2024/01/30 07:53:31;;;;;;;32.40;13.80;;;;;;;2.26;78.86;102248.00;111556;1206;96238;-67
2024/01/30 07:55:56;;;;;;;29.90;13.50;;;;;;;2.31;78.78;102247.54;111385;1208;137987;-67
2024/01/30 07:58:23;;;;;;;39.70;14.30;;;;;;;2.34;78.73;102244.39;111516;1208;96604;-69
2024/01/30 08:00:51;;;;;;;37.50;16.30;;;;;;;2.37;78.72;102242.17;111493;1206;138439;-70
2024/01/30 08:03:18;;;;;;;36.00;15.30;;;;;;;2.41;78.86;102243.29;111560;1212;99740;-69
2024/01/30 08:05:43;;;;;;;32.20;13.90;;;;;;;2.45;78.66;102243.70;111491;1206;96692;-69
2024/01/30 08:08:09;;;;;;;31.50;12.80;;;;;;;2.48;78.68;102242.16;111486;1212;139300;-69
2024/01/30 08:10:34;;;;;;;28.60;13.40;;;;;;;2.50;78.75;102240.79;110820;1210;109687;-68
2024/01/30 08:12:59;;;;;;;35.20;13.20;;;;;;;2.54;78.72;102241.02;110714;1206;138541;-68
2024/01/30 08:15:24;;;;;;;32.90;12.10;;;;;;;2.57;78.79;102238.23;110886;1207;96276;-68
2024/01/30 08:17:50;;;;;;;32.20;14.20;;;;;;;2.61;78.66;102242.51;110692;1206;95646;-68
2024/01/30 08:20:16;;;;;;;29.90;14.00;;;;;;;2.66;78.95;102242.74;110784;1224;140398;-70
2024/01/30 08:22:41;;;;;;;26.00;12.50;;;;;;;2.69;78.68;102242.08;110857;1212;107729;-69
2024/01/30 08:25:07;;;;;;;30.60;13.70;;;;;;;2.74;78.78;102239.51;110674;1212;138828;-69
2024/01/30 08:27:35;;;;;;;37.30;13.90;;;;;;;2.81;78.82;102243.14;111173;1206;96335;-69
2024/01/30 08:30:00;;;;;;;29.90;14.60;;;;;;;2.87;78.78;102242.69;110821;1212;100124;-69
2024/01/30 08:32:26;;;;;;;24.80;12.70;;;;;;;2.89;78.78;102237.61;110892;1222;138514;-68
2024/01/30 08:34:52;;;;;;;30.60;13.70;;;;;;;2.93;78.89;102238.20;110882;1209;96413;-68
2024/01/30 08:37:17;;;;;;;34.50;13.60;;;;;;;2.98;78.90;102233.13;110656;1212;138020;-68
2024/01/30 08:39:43;;;;;;;29.20;12.80;;;;;;;3.02;78.77;102231.77;110850;1209;96390;-68
2024/01/30 08:42:10;;;;;;;29.00;13.60;;;;;;;3.05;78.73;102226.86;110976;1212;96296;-69
2024/01/30 08:44:35;;;;;;;38.40;13.50;;;;;;;3.06;78.79;102229.00;110766;1206;139231;-68
2024/01/30 08:47:01;;;;;;;28.70;13.30;;;;;;;3.11;78.72;102232.77;110707;1209;96339;-69
2024/01/30 08:49:26;;;;;;;38.50;14.70;;;;;;;3.15;78.81;102234.05;110736;1212;138997;-68
2024/01/30 08:51:51;;;;;;;41.00;15.60;;;;;;;3.20;78.76;102234.29;110765;1212;97883;-69
2024/01/30 08:54:17;;;;;;;34.30;13.20;;;;;;;3.25;78.66;102238.23;110879;1211;96551;-69
2024/01/30 08:56:42;;;;;;;28.40;12.70;;;;;;;3.30;78.67;102238.83;111278;1212;137894;-69
2024/01/30 08:59:08;;;;;;;33.50;12.70;;;;;;;3.33;78.76;102238.35;111424;1206;96266;-69
2024/01/30 09:01:33;;;;;;;34.90;16.10;;;;;;;3.36;78.75;102235.55;111411;1212;138308;-69
2024/01/30 09:03:59;;;;;;;38.70;16.30;;;;;;;3.41;78.62;102236.31;111427;1206;96530;-69
2024/01/30 09:06:26;;;;;;;47.30;15.30;;;;;;;3.45;78.92;102233.89;111442;1206;138850;-69
2024/01/30 09:08:51;;;;;;;38.00;13.80;;;;;;;3.48;78.64;102233.04;111441;1212;96331;-69
2024/01/30 09:11:16;;;;;;;31.70;12.50;;;;;;;3.52;78.54;102231.48;111503;1212;96276;-69
2024/01/30 09:13:43;;;;;;;30.80;13.50;;;;;;;3.54;78.58;102232.59;111415;1210;138262;-70
2024/01/30 09:16:09;;;;;;;25.70;11.00;;;;;;;3.59;78.60;102228.21;111415;1206;107471;-70
2024/01/30 09:18:34;;;;;;;30.40;12.90;;;;;;;3.63;78.58;102227.19;111343;1206;138356;-70
2024/01/30 09:20:59;;;;;;;37.10;13.70;;;;;;;3.66;78.51;102225.10;111473;1208;96974;-69
2024/01/30 09:23:27;;;;;;;37.90;13.30;;;;;;;3.72;78.67;102224.10;110822;1207;96325;-69
2024/01/30 09:25:53;;;;;;;39.60;14.70;;;;;;;3.79;78.77;102226.12;110706;1212;140205;-69
2024/01/30 09:28:18;;;;;;;30.00;12.40;;;;;;;3.85;78.64;102220.88;110859;1211;96323;-68
2024/01/30 09:30:43;;;;;;;48.30;20.50;;;;;;;3.89;78.61;102220.38;110719;1212;139685;-70
2024/01/30 09:33:09;;;;;;;31.90;13.80;;;;;;;3.94;78.36;102216.17;110865;1211;96340;-69
2024/01/30 09:35:36;;;;;;;30.30;13.10;;;;;;;3.98;78.46;102210.55;110884;1211;96619;-69
2024/01/30 09:38:02;;;;;;;33.10;13.20;;;;;;;4.02;78.48;102207.23;110818;1222;139682;-69
2024/01/30 09:40:28;;;;;;;36.70;15.10;;;;;;;4.06;78.47;102205.31;110959;1206;96353;-69
2024/01/30 09:42:54;;;;;;;33.60;14.10;;;;;;;4.09;78.47;102204.27;111015;1206;138328;-70
2024/01/30 09:45:24;;;;;;;36.60;13.60;;;;;;;4.11;78.39;102197.40;111454;1206;96264;-68
2024/01/30 09:47:49;;;;;;;38.60;15.20;;;;;;;4.14;78.47;102196.36;111403;1206;96302;-70
2024/01/30 09:50:16;;;;;;;42.70;16.20;;;;;;;4.20;78.51;102194.28;111312;1212;138281;-69
2024/01/30 09:52:43;;;;;;;42.50;14.60;;;;;;;4.25;78.48;102195.03;111484;1212;96431;-69
2024/01/30 09:55:09;;;;;;;39.00;15.60;;;;;;;4.28;78.39;102195.05;111390;1210;138154;-69
2024/01/30 09:57:35;;;;;;;37.40;15.90;;;;;;;4.32;78.35;102192.60;111601;1206;96214;-69
2024/01/30 10:00:01;;;;;;;35.50;15.30;;;;;;;4.36;78.25;102195.98;111382;1210;96420;-69
2024/01/30 10:02:26;;;;;;;34.90;15.20;;;;;;;4.38;78.19;102190.70;111342;1212;137930;-69
2024/01/30 10:04:52;;;;;;;51.20;18.50;;;;;;;4.40;78.28;102185.92;111475;1206;97830;-69
2024/01/30 10:07:18;;;;;;;39.10;15.90;;;;;;;4.41;78.09;102183.27;111364;1212;137597;-69
2024/01/30 10:09:44;;;;;;;36.80;15.00;;;;;;;4.44;78.25;102182.95;111372;1212;96641;-69
2024/01/30 10:12:10;;;;;;;31.50;14.60;;;;;;;4.44;78.18;102182.77;111604;1206;96338;-69
2024/01/30 10:14:39;;;;;;;36.90;14.40;;;;;;;4.45;78.24;102182.77;111518;1206;139575;-69
2024/01/30 10:17:05;;;;;;;28.50;13.30;;;;;;;4.47;78.08;102182.08;111175;1210;96484;-69
2024/01/30 10:19:31;;;;;;;34.60;13.40;;;;;;;4.47;78.05;102179.96;110942;1208;138238;-69
2024/01/30 10:21:56;;;;;;;31.50;14.20;;;;;;;4.50;78.00;102180.67;110864;1210;98398;-69
2024/01/30 10:24:25;;;;;;;33.60;13.40;;;;;;;4.52;78.03;102175.92;110741;1222;138268;-68
2024/01/30 10:26:50;;;;;;;31.40;13.80;;;;;;;4.55;77.86;102171.69;110752;1210;96851;-69
2024/01/30 10:29:17;;;;;;;34.30;14.10;;;;;;;4.59;77.96;102176.49;110846;1218;96330;-69
2024/01/30 10:31:42;;;;;;;35.90;14.20;;;;;;;4.62;77.91;102168.54;110742;1212;138085;-69
2024/01/30 10:34:08;;;;;;;36.10;14.10;;;;;;;4.67;77.96;102164.84;110782;1212;96250;-69
2024/01/30 10:36:41;;;;;;;36.20;14.30;;;;;;;4.71;78.01;102162.03;110659;1212;138629;-68
2024/01/30 10:39:07;;;;;;;31.40;11.70;;;;;;;4.77;77.93;102162.95;110823;1206;112351;-69
2024/01/30 10:41:42;;;;;;;35.30;14.00;;;;;;;4.81;77.86;102162.08;110840;1210;98050;-69
2024/01/30 10:44:09;;;;;;;41.40;13.90;;;;;;;4.86;77.83;102157.15;110714;1206;139817;-68
2024/01/30 10:46:39;;;;;;;30.40;13.50;;;;;;;4.91;77.73;102158.05;110933;1206;96914;-69
2024/01/30 10:49:06;;;;;;;33.90;12.70;;;;;;;4.95;77.71;102158.06;111373;1206;139729;-69
2024/01/30 10:51:32;;;;;;;37.90;12.90;;;;;;;5.00;77.85;102155.25;111454;1211;97612;-68
2024/01/30 10:53:57;;;;;;;30.40;13.40;;;;;;;5.06;77.69;102156.52;111444;1206;96263;-68
2024/01/30 10:56:24;;;;;;;33.80;12.10;;;;;;;5.11;77.68;102152.10;111379;1206;138766;-69
2024/01/30 10:58:51;;;;;;;35.70;14.00;;;;;;;5.14;77.50;102149.98;111370;1206;96326;-69
2024/01/30 11:01:19;;;;;;;32.60;13.30;;;;;;;5.17;77.53;102150.34;110790;1212;137956;-69